Time,TemperatureF,DewpointF,PressureIn,WindDirection,WindDirectionDegrees,WindSpeedMPH,WindSpeedGustMPH,Humidity,HourlyPrecipIn,Conditions,Clouds,dailyrainin,SoftwareType,DateUTC
2013-05-26 00:13:00,55.6,53.0,30.22,NNE,26,0.0,0.0,92,0.00,,,0.00,weatherlink.com 1.10,2013-05-26 04:13:00,
2013-05-26 00:28:00,55.7,54.0,30.21,NNE,26,0.0,0.0,94,0.00,,,0.00,weatherlink.com 1.10,2013-05-26 04:28:00,
2013-05-26 00:43:00,55.8,54.0,30.20,NNE,26,0.0,0.0,94,0.00,,,0.00,weatherlink.com 1.10,2013-05-26 04:43:00,
2013-05-26 00:58:00,55.7,54.0,30.20,NNE,26,0.0,0.0,95,0.00,,,0.00,weatherlink.com 1.10,2013-05-26 04:58:00,
2013-05-26 01:13:00,55.5,54.0,30.20,NNE,26,0.0,0.0,95,0.00,,,0.00,weatherlink.com 1.10,2013-05-26 05:13:00,
2013-05-26 01:28:00,55.4,54.0,30.20,NNE,26,0.0,1.0,95,0.00,,,0.00,weatherlink.com 1.10,2013-05-26 05:28:00,
2013-05-26 01:43:00,55.3,54.0,30.19,NNE,26,0.0,0.0,95,0.00,,,0.00,weatherlink.com 1.10,2013-05-26 05:43:00,
2013-05-26 01:58:00,55.3,54.0,30.19,NNE,26,0.0,1.0,96,0.00,,,0.00,weatherlink.com 1.10,2013-05-26 05:58:00,
2013-05-26 02:13:00,55.3,54.0,30.18,NNE,26,0.0,0.0,96,0.00,,,0.00,weatherlink.com 1.10,2013-05-26 06:13:00,
2013-05-26 02:28:00,55.3,54.0,30.18,NNE,26,0.0,1.0,96,0.00,,,0.00,weatherlink.com 1.10,2013-05-26 06:28:00,
2013-05-26 02:43:00,55.2,54.0,30.18,NNE,26,0.0,0.0,96,0.00,,,0.00,weatherlink.com 1.10,2013-05-26 06:43:00,
2013-05-26 02:58:00,55.0,54.0,30.18,NNE,26,0.0,0.0,96,0.00,,,0.00,weatherlink.com 1.10,2013-05-26 06:58:00,
2013-05-26 03:13:00,55.0,54.0,30.18,NNE,26,0.0,0.0,97,0.00,,,0.00,weatherlink.com 1.10,2013-05-26 07:13:00,
2013-05-26 03:28:00,55.1,54.0,30.18,NNE,26,0.0,0.0,97,0.00,,,0.00,weatherlink.com 1.10,2013-05-26 07:28:00,
2013-05-26 03:43:00,55.3,55.0,30.18,NNE,26,0.0,0.0,97,0.00,,,0.00,weatherlink.com 1.10,2013-05-26 07:43:00,
2013-05-26 03:58:00,55.4,55.0,30.18,NNE,26,0.0,0.0,97,0.00,,,0.00,weatherlink.com 1.10,2013-05-26 07:58:00,
2013-05-26 04:13:00,55.7,55.0,30.18,NNE,26,0.0,0.0,97,0.00,,,0.00,weatherlink.com 1.10,2013-05-26 08:13:00,
2013-05-26 04:28:00,56.0,56.0,30.18,NNE,26,0.0,1.0,98,0.00,,,0.00,weatherlink.com 1.10,2013-05-26 08:28:00,
2013-05-26 04:43:00,56.3,56.0,30.19,NNE,26,0.0,0.0,98,0.00,,,0.00,weatherlink.com 1.10,2013-05-26 08:43:00,
2013-05-26 04:58:00,57.1,57.0,30.19,NNE,26,0.0,0.0,98,0.00,,,0.00,weatherlink.com 1.10,2013-05-26 08:58:00,
2013-05-26 05:13:00,57.7,57.0,30.20,West,262,0.0,2.0,98,0.00,,,0.00,weatherlink.com 1.10,2013-05-26 09:13:00,
2013-05-26 05:28:00,57.8,57.0,30.20,West,262,0.0,0.0,97,0.00,,,0.00,weatherlink.com 1.10,2013-05-26 09:28:00,
2013-05-26 05:43:00,57.7,57.0,30.21,West,262,0.0,0.0,97,0.00,,,0.00,weatherlink.com 1.10,2013-05-26 09:43:00,
2013-05-26 05:58:00,57.5,57.0,30.20,West,262,0.0,0.0,97,0.00,,,0.00,weatherlink.com 1.10,2013-05-26 09:58:00,
2013-05-26 06:13:00,57.2,56.0,30.21,West,262,0.0,0.0,97,0.00,,,0.00,weatherlink.com 1.10,2013-05-26 10:13:00,
2013-05-26 06:28:00,57.1,56.0,30.22,West,262,0.0,0.0,97,0.00,,,0.00,weatherlink.com 1.10,2013-05-26 10:28:00,
2013-05-26 06:43:00,56.9,56.0,30.23,West,262,0.0,0.0,97,0.00,,,0.00,weatherlink.com 1.10,2013-05-26 10:43:00,
2013-05-26 06:59:00,57.2,57.0,30.23,North,351,1.0,2.0,98,0.00,,,0.00,weatherlink.com 1.10,2013-05-26 10:59:00,
2013-05-26 07:14:00,58.2,58.0,30.24,SSW,197,0.0,2.0,98,0.00,,,0.00,weatherlink.com 1.10,2013-05-26 11:14:00,
2013-05-26 07:29:00,59.2,58.0,30.25,WNW,291,1.0,2.0,97,0.00,,,0.00,weatherlink.com 1.10,2013-05-26 11:29:00,
2013-05-26 07:44:00,59.7,58.0,30.25,NW,314,0.0,2.0,94,0.00,,,0.00,weatherlink.com 1.10,2013-05-26 11:44:00,
2013-05-26 07:59:00,60.9,59.0,30.25,NW,313,0.0,1.0,92,0.00,,,0.00,weatherlink.com 1.10,2013-05-26 11:59:00,
2013-05-26 08:14:00,62.5,59.0,30.25,SW,214,0.0,2.0,88,0.00,,,0.00,weatherlink.com 1.10,2013-05-26 12:14:00,
2013-05-26 08:29:00,63.7,59.0,30.25,West,277,1.0,2.0,83,0.00,,,0.00,weatherlink.com 1.10,2013-05-26 12:29:00,
2013-05-26 08:44:00,64.7,59.0,30.26,NW,311,0.0,1.0,81,0.00,,,0.00,weatherlink.com 1.10,2013-05-26 12:44:00,
2013-05-26 08:59:00,64.6,58.0,30.27,NW,317,0.0,2.0,80,0.00,,,0.00,weatherlink.com 1.10,2013-05-26 12:59:00,
2013-05-26 09:15:00,65.1,58.0,30.27,NW,314,0.0,2.0,78,0.00,,,0.00,weatherlink.com 1.10,2013-05-26 13:15:00,
2013-05-26 09:29:00,65.6,58.0,30.27,WNW,283,0.0,3.0,77,0.00,,,0.00,weatherlink.com 1.10,2013-05-26 13:29:00,
2013-05-26 09:44:00,66.9,58.0,30.27,NW,309,0.0,2.0,72,0.00,,,0.00,weatherlink.com 1.10,2013-05-26 13:44:00,
2013-05-26 09:59:00,68.3,58.0,30.28,West,270,1.0,4.0,70,0.00,,,0.00,weatherlink.com 1.10,2013-05-26 13:59:00,
2013-05-26 10:14:00,70.1,58.0,30.27,WNW,298,0.0,2.0,66,0.00,,,0.00,weatherlink.com 1.10,2013-05-26 14:14:00,
2013-05-26 10:29:00,70.5,59.0,30.28,North,11,3.0,4.0,67,0.00,,,0.00,weatherlink.com 1.10,2013-05-26 14:29:00,
2013-05-26 10:44:00,72.6,59.0,30.28,WNW,294,0.0,5.0,63,0.00,,,0.00,weatherlink.com 1.10,2013-05-26 14:44:00,
2013-05-26 10:59:00,72.7,58.0,30.28,West,270,1.0,3.0,61,0.00,,,0.00,weatherlink.com 1.10,2013-05-26 14:59:00,
2013-05-26 11:14:00,73.4,59.0,30.28,East,83,2.0,5.0,60,0.00,,,0.00,weatherlink.com 1.10,2013-05-26 15:14:00,
2013-05-26 11:29:00,74.4,57.0,30.27,SSW,197,1.0,3.0,55,0.00,,,0.00,weatherlink.com 1.10,2013-05-26 15:29:00,
2013-05-26 11:44:00,75.3,57.0,30.27,NE,41,1.0,2.0,54,0.00,,,0.00,weatherlink.com 1.10,2013-05-26 15:44:00,
2013-05-26 12:00:00,75.1,56.0,30.26,WSW,249,0.0,2.0,52,0.00,,,0.00,weatherlink.com 1.10,2013-05-26 16:00:00,
2013-05-26 12:15:00,77.5,57.0,30.26,WSW,245,0.0,2.0,49,0.00,,,0.00,weatherlink.com 1.10,2013-05-26 16:15:00,
2013-05-26 12:30:00,75.7,58.0,30.25,SSE,150,1.0,6.0,54,0.00,,,0.00,weatherlink.com 1.10,2013-05-26 16:30:00,
2013-05-26 12:45:00,76.5,58.0,30.25,West,261,1.0,4.0,53,0.00,,,0.00,weatherlink.com 1.10,2013-05-26 16:45:00,
2013-05-26 13:00:00,73.7,58.0,30.25,ENE,72,7.0,7.0,58,0.00,,,0.00,weatherlink.com 1.10,2013-05-26 17:00:00,
2013-05-26 13:15:00,73.4,58.0,30.25,East,92,6.0,7.0,58,0.00,,,0.00,weatherlink.com 1.10,2013-05-26 17:15:00,
2013-05-26 13:30:00,73.7,57.0,30.24,SSE,163,2.0,6.0,56,0.00,,,0.00,weatherlink.com 1.10,2013-05-26 17:30:00,
2013-05-26 13:45:00,72.5,56.0,30.24,East,79,6.0,7.0,57,0.00,,,0.00,weatherlink.com 1.10,2013-05-26 17:45:00,
2013-05-26 14:00:00,73.8,54.0,30.23,East,87,2.0,7.0,51,0.00,,,0.00,weatherlink.com 1.10,2013-05-26 18:00:00,
2013-05-26 14:15:00,76.1,55.0,30.23,WSW,252,0.0,4.0,48,0.00,,,0.00,weatherlink.com 1.10,2013-05-26 18:15:00,
2013-05-26 14:30:00,75.6,56.0,30.23,WSW,249,2.0,7.0,51,0.00,,,0.00,weatherlink.com 1.10,2013-05-26 18:30:00,
2013-05-26 14:45:00,75.6,55.0,30.23,SSE,153,3.0,5.0,49,0.00,,,0.00,weatherlink.com 1.10,2013-05-26 18:45:00,
2013-05-26 15:00:00,75.7,55.0,30.23,WNW,294,1.0,6.0,49,0.00,,,0.00,weatherlink.com 1.10,2013-05-26 19:00:00,
2013-05-26 15:15:00,74.8,54.0,30.22,ESE,121,3.0,7.0,49,0.00,,,0.00,weatherlink.com 1.10,2013-05-26 19:15:00,
2013-05-26 15:30:00,75.3,56.0,30.22,SE,136,1.0,5.0,51,0.00,,,0.00,weatherlink.com 1.10,2013-05-26 19:30:00,
2013-05-26 15:45:00,74.8,57.0,30.21,ENE,63,4.0,7.0,54,0.00,,,0.00,weatherlink.com 1.10,2013-05-26 19:45:00,
2013-05-26 16:00:00,74.4,57.0,30.20,ENE,70,4.0,5.0,55,0.00,,,0.00,weatherlink.com 1.10,2013-05-26 20:00:00,
2013-05-26 16:15:00,74.2,57.0,30.20,NE,49,2.0,7.0,56,0.00,,,0.00,weatherlink.com 1.10,2013-05-26 20:15:00,
2013-05-26 16:30:00,75.1,60.0,30.20,East,90,2.0,4.0,59,0.00,,,0.00,weatherlink.com 1.10,2013-05-26 20:30:00,
2013-05-26 16:45:00,75.2,61.0,30.20,West,275,1.0,4.0,61,0.00,,,0.00,weatherlink.com 1.10,2013-05-26 20:45:00,
2013-05-26 17:00:00,74.9,61.0,30.20,SSE,147,1.0,9.0,63,0.00,,,0.00,weatherlink.com 1.10,2013-05-26 21:00:00,
2013-05-26 17:15:00,74.4,62.0,30.20,East,88,4.0,6.0,65,0.00,,,0.00,weatherlink.com 1.10,2013-05-26 21:15:00,
2013-05-26 17:30:00,73.9,62.0,30.20,ESE,112,4.0,6.0,67,0.00,,,0.00,weatherlink.com 1.10,2013-05-26 21:30:00,
2013-05-26 17:45:00,73.5,62.0,30.20,ENE,72,7.0,7.0,68,0.00,,,0.00,weatherlink.com 1.10,2013-05-26 21:45:00,
2013-05-26 18:00:00,72.7,62.0,30.20,East,79,1.0,6.0,70,0.00,,,0.00,weatherlink.com 1.10,2013-05-26 22:00:00,
2013-05-26 18:15:00,72.4,63.0,30.20,SE,127,0.0,5.0,72,0.00,,,0.00,weatherlink.com 1.10,2013-05-26 22:15:00,
2013-05-26 18:30:00,72.3,64.0,30.20,East,89,2.0,5.0,74,0.00,,,0.00,weatherlink.com 1.10,2013-05-26 22:30:00,
2013-05-26 18:45:00,72.0,64.0,30.20,East,85,3.0,6.0,75,0.00,,,0.00,weatherlink.com 1.10,2013-05-26 22:45:00,
2013-05-26 19:00:00,71.7,64.0,30.19,ENE,75,1.0,4.0,76,0.00,,,0.00,weatherlink.com 1.10,2013-05-26 23:00:00,
2013-05-26 19:15:00,71.7,64.0,30.20,ESE,122,2.0,6.0,77,0.00,,,0.00,weatherlink.com 1.10,2013-05-26 23:15:00,
2013-05-26 19:30:00,71.5,64.0,30.20,ESE,104,2.0,3.0,77,0.00,,,0.00,weatherlink.com 1.10,2013-05-26 23:30:00,
2013-05-26 19:45:00,71.0,64.0,30.20,ESE,115,3.0,4.0,78,0.00,,,0.00,weatherlink.com 1.10,2013-05-26 23:45:00,
2013-05-26 20:00:00,70.3,64.0,30.20,ENE,76,0.0,3.0,80,0.00,,,0.00,weatherlink.com 1.10,2013-05-27 00:00:00,
2013-05-26 20:15:00,69.8,64.0,30.20,NE,50,1.0,1.0,82,0.00,,,0.00,weatherlink.com 1.10,2013-05-27 00:15:00,
2013-05-26 20:30:00,69.5,64.0,30.20,SW,229,0.0,2.0,83,0.00,,,0.00,weatherlink.com 1.10,2013-05-27 00:30:00,
2013-05-26 20:45:00,68.4,63.0,30.20,SW,229,0.0,0.0,84,0.00,,,0.00,weatherlink.com 1.10,2013-05-27 00:45:00,
2013-05-26 21:00:00,67.3,63.0,30.20,SW,230,0.0,0.0,86,0.00,,,0.00,weatherlink.com 1.10,2013-05-27 01:00:00,
2013-05-26 21:15:00,66.6,63.0,30.21,SW,229,0.0,1.0,88,0.00,,,0.00,weatherlink.com 1.10,2013-05-27 01:15:00,
2013-05-26 21:30:00,65.7,62.0,30.21,SW,231,0.0,0.0,89,0.00,,,0.00,weatherlink.com 1.10,2013-05-27 01:30:00,
2013-05-26 21:45:00,65.1,63.0,30.22,SW,231,0.0,1.0,91,0.00,,,0.00,weatherlink.com 1.10,2013-05-27 01:45:00,
2013-05-26 22:00:00,64.5,62.0,30.22,SW,231,0.0,0.0,91,0.00,,,0.00,weatherlink.com 1.10,2013-05-27 02:00:00,
2013-05-26 22:15:00,64.0,62.0,30.23,SW,231,0.0,0.0,92,0.00,,,0.00,weatherlink.com 1.10,2013-05-27 02:15:00,
2013-05-26 22:30:00,63.4,61.0,30.23,SW,231,0.0,0.0,93,0.00,,,0.00,weatherlink.com 1.10,2013-05-27 02:30:00,
2013-05-26 22:45:00,63.0,61.0,30.23,SW,231,0.0,0.0,94,0.00,,,0.00,weatherlink.com 1.10,2013-05-27 02:45:00,
2013-05-26 23:00:00,62.5,61.0,30.23,SW,231,0.0,0.0,94,0.00,,,0.00,weatherlink.com 1.10,2013-05-27 03:00:00,
2013-05-26 23:15:00,62.0,60.0,30.23,SW,231,0.0,0.0,94,0.00,,,0.00,weatherlink.com 1.10,2013-05-27 03:15:00,
2013-05-26 23:30:00,61.7,60.0,30.23,SW,231,0.0,0.0,95,0.00,,,0.00,weatherlink.com 1.10,2013-05-27 03:30:00,
2013-05-26 23:45:00,61.3,60.0,30.23,SW,231,0.0,0.0,95,0.00,,,0.00,weatherlink.com 1.10,2013-05-27 03:45:00,